sensor_id;sensor_type;location;lat;lon;timestamp;P1;durP1;ratioP1;P2;durP2;ratioP2
31091;SDS011;67728;53.122;12.776;2024-01-25T00:00:19;1133.33;;;659.67;;
31091;SDS011;67728;53.122;12.776;2024-01-25T00:01:50;1131.77;;;661.17;;
31091;SDS011;67728;53.122;12.776;2024-01-25T00:03:21;1122.60;;;639.67;;
31091;SDS011;67728;53.122;12.776;2024-01-25T00:04:52;1120.57;;;639.40;;
31091;SDS011;67728;53.122;12.776;2024-01-25T00:06:25;1127.97;;;640.40;;
31091;SDS011;67728;53.122;12.776;2024-01-25T00:07:55;1113.97;;;658.50;;
31091;SDS011;67728;53.122;12.776;2024-01-25T00:09:27;1111.70;;;654.60;;
31091;SDS011;67728;53.122;12.776;2024-01-25T00:10:59;1122.97;;;656.07;;
31091;SDS011;67728;53.122;12.776;2024-01-25T00:12:30;1130.30;;;667.13;;
31091;SDS011;67728;53.122;12.776;2024-01-25T00:14:01;1111.33;;;658.30;;
31091;SDS011;67728;53.122;12.776;2024-01-25T00:15:33;1114.23;;;657.93;;
31091;SDS011;67728;53.122;12.776;2024-01-25T00:17:03;1115.80;;;659.77;;
31091;SDS011;67728;53.122;12.776;2024-01-25T00:18:35;1111.87;;;659.17;;
31091;SDS011;67728;53.122;12.776;2024-01-25T00:20:06;1109.97;;;654.73;;
31091;SDS011;67728;53.122;12.776;2024-01-25T00:21:43;1118.57;;;666.53;;
31091;SDS011;67728;53.122;12.776;2024-01-25T00:23:13;1117.67;;;659.63;;
31091;SDS011;67728;53.122;12.776;2024-01-25T00:24:45;1124.17;;;660.83;;
31091;SDS011;67728;53.122;12.776;2024-01-25T00:26:16;1114.33;;;655.10;;
31091;SDS011;67728;53.122;12.776;2024-01-25T00:27:47;1108.67;;;658.10;;
31091;SDS011;67728;53.122;12.776;2024-01-25T00:29:18;1112.10;;;652.20;;
31091;SDS011;67728;53.122;12.776;2024-01-25T00:30:49;1111.80;;;652.73;;
31091;SDS011;67728;53.122;12.776;2024-01-25T00:32:20;1107.47;;;648.90;;
31091;SDS011;67728;53.122;12.776;2024-01-25T00:33:52;1102.73;;;645.03;;
31091;SDS011;67728;53.122;12.776;2024-01-25T00:35:23;1110.27;;;645.57;;
31091;SDS011;67728;53.122;12.776;2024-01-25T00:36:57;1106.57;;;645.00;;
31091;SDS011;67728;53.122;12.776;2024-01-25T00:38:28;1103.37;;;645.37;;
31091;SDS011;67728;53.122;12.776;2024-01-25T00:40:00;1102.93;;;646.53;;
31091;SDS011;67728;53.122;12.776;2024-01-25T00:41:31;1104.77;;;646.63;;
31091;SDS011;67728;53.122;12.776;2024-01-25T00:43:04;1098.70;;;645.23;;
31091;SDS011;67728;53.122;12.776;2024-01-25T00:44:35;1096.80;;;641.70;;
31091;SDS011;67728;53.122;12.776;2024-01-25T00:46:08;1096.77;;;638.90;;
31091;SDS011;67728;53.122;12.776;2024-01-25T00:47:39;1100.03;;;635.80;;
31091;SDS011;67728;53.122;12.776;2024-01-25T00:49:11;1101.53;;;640.17;;
31091;SDS011;67728;53.122;12.776;2024-01-25T00:50:42;1105.50;;;647.70;;
31091;SDS011;67728;53.122;12.776;2024-01-25T00:52:16;1106.53;;;640.70;;
31091;SDS011;67728;53.122;12.776;2024-01-25T00:53:47;1103.37;;;646.00;;
31091;SDS011;67728;53.122;12.776;2024-01-25T00:55:19;1105.67;;;652.43;;
31091;SDS011;67728;53.122;12.776;2024-01-25T00:56:50;1107.30;;;648.57;;
31091;SDS011;67728;53.122;12.776;2024-01-25T00:58:23;1120.73;;;641.83;;
31091;SDS011;67728;53.122;12.776;2024-01-25T00:59:54;1105.60;;;639.70;;
31091;SDS011;67728;53.122;12.776;2024-01-25T01:01:26;1105.27;;;642.07;;
31091;SDS011;67728;53.122;12.776;2024-01-25T01:02:57;1113.67;;;654.90;;
31091;SDS011;67728;53.122;12.776;2024-01-25T01:04:34;1093.30;;;639.67;;
31091;SDS011;67728;53.122;12.776;2024-01-25T01:06:06;1086.47;;;637.70;;
31091;SDS011;67728;53.122;12.776;2024-01-25T01:07:40;1097.97;;;646.80;;
31091;SDS011;67728;53.122;12.776;2024-01-25T01:09:11;1101.23;;;642.40;;
31091;SDS011;67728;53.122;12.776;2024-01-25T01:10:42;1099.60;;;640.53;;
31091;SDS011;67728;53.122;12.776;2024-01-25T01:12:13;1100.70;;;644.63;;
31091;SDS011;67728;53.122;12.776;2024-01-25T01:13:45;1158.10;;;654.33;;
31091;SDS011;67728;53.122;12.776;2024-01-25T01:15:17;1162.43;;;652.87;;
31091;SDS011;67728;53.122;12.776;2024-01-25T01:16:49;1165.77;;;648.67;;
31091;SDS011;67728;53.122;12.776;2024-01-25T01:18:20;1160.63;;;649.13;;
31091;SDS011;67728;53.122;12.776;2024-01-25T01:19:52;1161.17;;;648.40;;
31091;SDS011;67728;53.122;12.776;2024-01-25T01:21:22;1162.03;;;642.40;;
31091;SDS011;67728;53.122;12.776;2024-01-25T01:22:55;1165.03;;;644.40;;
31091;SDS011;67728;53.122;12.776;2024-01-25T01:24:26;1162.27;;;642.37;;
31091;SDS011;67728;53.122;12.776;2024-01-25T01:25:58;1167.30;;;641.40;;
31091;SDS011;67728;53.122;12.776;2024-01-25T01:27:29;1162.07;;;629.17;;
31091;SDS011;67728;53.122;12.776;2024-01-25T01:29:00;1102.43;;;628.17;;
31091;SDS011;67728;53.122;12.776;2024-01-25T01:30:31;1098.27;;;619.43;;
31091;SDS011;67728;53.122;12.776;2024-01-25T01:32:03;1106.83;;;624.70;;
31091;SDS011;67728;53.122;12.776;2024-01-25T01:33:33;1112.57;;;630.83;;
31091;SDS011;67728;53.122;12.776;2024-01-25T01:35:05;1098.37;;;623.23;;
31091;SDS011;67728;53.122;12.776;2024-01-25T01:36:36;1101.20;;;630.27;;
31091;SDS011;67728;53.122;12.776;2024-01-25T01:38:09;1116.87;;;634.23;;
31091;SDS011;67728;53.122;12.776;2024-01-25T01:39:40;1103.30;;;624.63;;
31091;SDS011;67728;53.122;12.776;2024-01-25T01:41:11;1105.87;;;625.17;;
31091;SDS011;67728;53.122;12.776;2024-01-25T01:42:43;1116.70;;;628.40;;
31091;SDS011;67728;53.122;12.776;2024-01-25T01:44:14;1103.77;;;615.17;;
31091;SDS011;67728;53.122;12.776;2024-01-25T01:45:45;1109.33;;;618.50;;
31091;SDS011;67728;53.122;12.776;2024-01-25T01:47:17;1109.27;;;620.87;;
31091;SDS011;67728;53.122;12.776;2024-01-25T01:48:47;1103.07;;;628.67;;
31091;SDS011;67728;53.122;12.776;2024-01-25T01:50:19;1102.17;;;628.50;;
31091;SDS011;67728;53.122;12.776;2024-01-25T01:51:50;1105.90;;;626.87;;
31091;SDS011;67728;53.122;12.776;2024-01-25T01:53:23;1100.77;;;620.30;;
31091;SDS011;67728;53.122;12.776;2024-01-25T01:54:53;1102.70;;;624.57;;
31091;SDS011;67728;53.122;12.776;2024-01-25T01:56:27;1111.97;;;627.03;;
31091;SDS011;67728;53.122;12.776;2024-01-25T01:57:58;1096.80;;;624.03;;
31091;SDS011;67728;53.122;12.776;2024-01-25T01:59:30;1100.30;;;623.67;;
31091;SDS011;67728;53.122;12.776;2024-01-25T02:01:01;1107.93;;;638.90;;
31091;SDS011;67728;53.122;12.776;2024-01-25T02:02:34;1108.50;;;631.70;;
31091;SDS011;67728;53.122;12.776;2024-01-25T02:04:05;1111.50;;;630.77;;
31091;SDS011;67728;53.122;12.776;2024-01-25T02:05:37;1105.63;;;623.63;;
31091;SDS011;67728;53.122;12.776;2024-01-25T02:07:07;1109.53;;;631.23;;
31091;SDS011;67728;53.122;12.776;2024-01-25T02:08:40;1100.50;;;619.40;;
31091;SDS011;67728;53.122;12.776;2024-01-25T02:10:11;1105.93;;;624.13;;
31091;SDS011;67728;53.122;12.776;2024-01-25T02:11:42;1102.03;;;622.30;;
31091;SDS011;67728;53.122;12.776;2024-01-25T02:13:13;1096.67;;;616.77;;
31091;SDS011;67728;53.122;12.776;2024-01-25T02:14:45;1110.60;;;622.67;;
31091;SDS011;67728;53.122;12.776;2024-01-25T02:16:15;1102.43;;;624.90;;
31091;SDS011;67728;53.122;12.776;2024-01-25T02:17:47;1104.93;;;623.80;;
31091;SDS011;67728;53.122;12.776;2024-01-25T02:19:18;1104.70;;;629.83;;
31091;SDS011;67728;53.122;12.776;2024-01-25T02:20:50;1099.73;;;628.47;;
31091;SDS011;67728;53.122;12.776;2024-01-25T02:22:22;1097.97;;;624.70;;
31091;SDS011;67728;53.122;12.776;2024-01-25T02:23:53;1102.70;;;631.53;;
31091;SDS011;67728;53.122;12.776;2024-01-25T02:25:24;1097.43;;;625.97;;
31091;SDS011;67728;53.122;12.776;2024-01-25T02:26:55;1101.90;;;621.00;;
31091;SDS011;67728;53.122;12.776;2024-01-25T02:28:26;1114.50;;;625.87;;
31091;SDS011;67728;53.122;12.776;2024-01-25T02:29:58;1108.13;;;620.10;;
31091;SDS011;67728;53.122;12.776;2024-01-25T02:31:28;1108.27;;;621.20;;
31091;SDS011;67728;53.122;12.776;2024-01-25T02:33:00;1101.53;;;620.13;;
31091;SDS011;67728;53.122;12.776;2024-01-25T02:34:31;1097.83;;;616.60;;
31091;SDS011;67728;53.122;12.776;2024-01-25T02:36:03;1107.80;;;622.30;;
31091;SDS011;67728;53.122;12.776;2024-01-25T02:37:35;1104.30;;;622.97;;
31091;SDS011;67728;53.122;12.776;2024-01-25T02:39:07;1100.63;;;622.20;;
31091;SDS011;67728;53.122;12.776;2024-01-25T02:40:38;1108.40;;;622.20;;
31091;SDS011;67728;53.122;12.776;2024-01-25T02:42:09;1111.47;;;622.23;;
31091;SDS011;67728;53.122;12.776;2024-01-25T02:43:40;1110.33;;;615.30;;
31091;SDS011;67728;53.122;12.776;2024-01-25T02:45:12;1107.23;;;620.43;;
31091;SDS011;67728;53.122;12.776;2024-01-25T02:46:42;1114.87;;;626.73;;
31091;SDS011;67728;53.122;12.776;2024-01-25T02:48:16;1111.10;;;623.00;;
31091;SDS011;67728;53.122;12.776;2024-01-25T02:49:47;1107.47;;;624.60;;
31091;SDS011;67728;53.122;12.776;2024-01-25T02:51:18;1111.37;;;624.03;;
31091;SDS011;67728;53.122;12.776;2024-01-25T02:52:51;1105.77;;;633.77;;
31091;SDS011;67728;53.122;12.776;2024-01-25T02:54:22;1099.73;;;619.43;;
31091;SDS011;67728;53.122;12.776;2024-01-25T02:55:53;1103.60;;;634.63;;
31091;SDS011;67728;53.122;12.776;2024-01-25T02:57:24;1112.60;;;627.90;;
31091;SDS011;67728;53.122;12.776;2024-01-25T02:58:55;1103.23;;;621.03;;
31091;SDS011;67728;53.122;12.776;2024-01-25T03:00:27;1104.37;;;621.43;;
31091;SDS011;67728;53.122;12.776;2024-01-25T03:01:57;1097.93;;;625.50;;
31091;SDS011;67728;53.122;12.776;2024-01-25T03:03:29;1123.40;;;636.83;;
31091;SDS011;67728;53.122;12.776;2024-01-25T03:05:00;1120.13;;;640.70;;
31091;SDS011;67728;53.122;12.776;2024-01-25T03:06:31;1108.07;;;633.20;;
31091;SDS011;67728;53.122;12.776;2024-01-25T03:08:04;1107.17;;;635.87;;
31091;SDS011;67728;53.122;12.776;2024-01-25T03:09:36;1119.57;;;630.97;;
31091;SDS011;67728;53.122;12.776;2024-01-25T03:11:06;1118.20;;;630.57;;
31091;SDS011;67728;53.122;12.776;2024-01-25T03:12:38;1120.70;;;622.40;;
31091;SDS011;67728;53.122;12.776;2024-01-25T03:14:08;1125.93;;;634.70;;
31091;SDS011;67728;53.122;12.776;2024-01-25T03:15:40;1121.93;;;642.50;;
31091;SDS011;67728;53.122;12.776;2024-01-25T03:17:10;1117.03;;;630.80;;
31091;SDS011;67728;53.122;12.776;2024-01-25T03:18:43;1118.53;;;638.90;;
31091;SDS011;67728;53.122;12.776;2024-01-25T03:20:13;1116.07;;;628.47;;
31091;SDS011;67728;53.122;12.776;2024-01-25T03:21:45;1110.40;;;624.70;;
31091;SDS011;67728;53.122;12.776;2024-01-25T03:23:17;1112.53;;;626.40;;
31091;SDS011;67728;53.122;12.776;2024-01-25T03:24:49;1124.13;;;627.93;;
31091;SDS011;67728;53.122;12.776;2024-01-25T03:26:19;1117.47;;;621.73;;
31091;SDS011;67728;53.122;12.776;2024-01-25T03:27:51;1116.10;;;634.83;;
31091;SDS011;67728;53.122;12.776;2024-01-25T03:29:21;1112.67;;;627.60;;
31091;SDS011;67728;53.122;12.776;2024-01-25T03:30:53;1112.47;;;629.73;;
31091;SDS011;67728;53.122;12.776;2024-01-25T03:32:24;1116.73;;;624.50;;
31091;SDS011;67728;53.122;12.776;2024-01-25T03:33:55;1115.13;;;629.07;;
31091;SDS011;67728;53.122;12.776;2024-01-25T03:35:27;1122.03;;;628.23;;
31091;SDS011;67728;53.122;12.776;2024-01-25T03:36:58;1117.83;;;625.40;;
31091;SDS011;67728;53.122;12.776;2024-01-25T03:38:31;1116.33;;;632.77;;
31091;SDS011;67728;53.122;12.776;2024-01-25T03:40:03;1110.50;;;621.37;;
31091;SDS011;67728;53.122;12.776;2024-01-25T03:41:35;1114.07;;;622.30;;
31091;SDS011;67728;53.122;12.776;2024-01-25T03:43:06;1116.73;;;627.03;;
31091;SDS011;67728;53.122;12.776;2024-01-25T03:44:37;1109.00;;;626.17;;
31091;SDS011;67728;53.122;12.776;2024-01-25T03:46:09;1111.60;;;627.73;;
31091;SDS011;67728;53.122;12.776;2024-01-25T03:47:39;1118.23;;;630.43;;
31091;SDS011;67728;53.122;12.776;2024-01-25T03:49:11;1113.00;;;625.37;;
31091;SDS011;67728;53.122;12.776;2024-01-25T03:50:42;1111.47;;;627.53;;
31091;SDS011;67728;53.122;12.776;2024-01-25T03:52:14;1111.60;;;626.30;;
31091;SDS011;67728;53.122;12.776;2024-01-25T03:53:46;1111.60;;;629.23;;
31091;SDS011;67728;53.122;12.776;2024-01-25T03:55:18;1104.23;;;632.43;;
31091;SDS011;67728;53.122;12.776;2024-01-25T03:56:48;1115.73;;;637.07;;
31091;SDS011;67728;53.122;12.776;2024-01-25T03:58:20;1104.03;;;638.13;;
31091;SDS011;67728;53.122;12.776;2024-01-25T03:59:50;1121.73;;;635.17;;
31091;SDS011;67728;53.122;12.776;2024-01-25T04:01:22;1097.60;;;633.63;;
31091;SDS011;67728;53.122;12.776;2024-01-25T04:02:53;1101.23;;;637.00;;
31091;SDS011;67728;53.122;12.776;2024-01-25T04:04:24;1099.43;;;631.20;;
31091;SDS011;67728;53.122;12.776;2024-01-25T04:05:55;1094.30;;;626.57;;
31091;SDS011;67728;53.122;12.776;2024-01-25T04:07:26;1091.53;;;623.23;;
31091;SDS011;67728;53.122;12.776;2024-01-25T04:08:58;1093.73;;;628.50;;
31091;SDS011;67728;53.122;12.776;2024-01-25T04:10:30;1123.67;;;632.40;;
31091;SDS011;67728;53.122;12.776;2024-01-25T04:12:00;1100.93;;;630.80;;
31091;SDS011;67728;53.122;12.776;2024-01-25T04:13:32;1109.27;;;631.70;;
31091;SDS011;67728;53.122;12.776;2024-01-25T04:15:03;1104.33;;;629.60;;
31091;SDS011;67728;53.122;12.776;2024-01-25T04:16:36;1110.27;;;625.07;;
31091;SDS011;67728;53.122;12.776;2024-01-25T04:18:07;1105.10;;;625.27;;
31091;SDS011;67728;53.122;12.776;2024-01-25T04:19:38;1108.97;;;625.27;;
31091;SDS011;67728;53.122;12.776;2024-01-25T04:21:09;1090.90;;;616.13;;
31091;SDS011;67728;53.122;12.776;2024-01-25T04:22:40;1098.33;;;622.90;;
31091;SDS011;67728;53.122;12.776;2024-01-25T04:24:13;1104.30;;;627.23;;
31091;SDS011;67728;53.122;12.776;2024-01-25T04:25:44;1101.57;;;628.67;;
31091;SDS011;67728;53.122;12.776;2024-01-25T04:27:15;1105.67;;;628.53;;
31091;SDS011;67728;53.122;12.776;2024-01-25T04:28:46;1102.93;;;626.27;;
31091;SDS011;67728;53.122;12.776;2024-01-25T04:30:18;1106.33;;;624.00;;
31091;SDS011;67728;53.122;12.776;2024-01-25T04:31:48;1112.33;;;625.97;;
31091;SDS011;67728;53.122;12.776;2024-01-25T04:33:20;1099.23;;;626.57;;
31091;SDS011;67728;53.122;12.776;2024-01-25T04:34:51;1119.53;;;629.97;;
31091;SDS011;67728;53.122;12.776;2024-01-25T04:36:22;1101.63;;;622.20;;
31091;SDS011;67728;53.122;12.776;2024-01-25T04:37:54;1108.00;;;627.20;;
31091;SDS011;67728;53.122;12.776;2024-01-25T04:39:26;1098.20;;;622.10;;
31091;SDS011;67728;53.122;12.776;2024-01-25T04:40:57;1098.67;;;622.07;;
31091;SDS011;67728;53.122;12.776;2024-01-25T04:42:29;1097.30;;;622.40;;
31091;SDS011;67728;53.122;12.776;2024-01-25T04:44:00;1112.93;;;633.50;;
31091;SDS011;67728;53.122;12.776;2024-01-25T04:45:31;1108.50;;;626.63;;
31091;SDS011;67728;53.122;12.776;2024-01-25T04:47:02;1102.23;;;616.00;;
31091;SDS011;67728;53.122;12.776;2024-01-25T04:48:34;1105.80;;;624.53;;
31091;SDS011;67728;53.122;12.776;2024-01-25T04:50:05;1104.13;;;621.93;;
31091;SDS011;67728;53.122;12.776;2024-01-25T04:51:37;1103.30;;;621.87;;
31091;SDS011;67728;53.122;12.776;2024-01-25T04:53:07;1105.57;;;624.80;;
31091;SDS011;67728;53.122;12.776;2024-01-25T04:54:40;1119.77;;;625.20;;
31091;SDS011;67728;53.122;12.776;2024-01-25T04:56:11;1108.93;;;619.73;;
31091;SDS011;67728;53.122;12.776;2024-01-25T04:57:43;1100.07;;;619.10;;
31091;SDS011;67728;53.122;12.776;2024-01-25T04:59:14;1153.27;;;622.40;;
31091;SDS011;67728;53.122;12.776;2024-01-25T05:00:45;1150.47;;;626.47;;
31091;SDS011;67728;53.122;12.776;2024-01-25T05:02:16;1150.40;;;628.53;;
31091;SDS011;67728;53.122;12.776;2024-01-25T05:03:48;1143.60;;;618.90;;
31091;SDS011;67728;53.122;12.776;2024-01-25T05:05:18;1164.37;;;629.30;;
31091;SDS011;67728;53.122;12.776;2024-01-25T05:06:50;1155.20;;;623.00;;
31091;SDS011;67728;53.122;12.776;2024-01-25T05:08:21;1163.83;;;619.07;;
31091;SDS011;67728;53.122;12.776;2024-01-25T05:09:54;1146.43;;;617.63;;
31091;SDS011;67728;53.122;12.776;2024-01-25T05:11:24;1148.93;;;631.07;;
31091;SDS011;67728;53.122;12.776;2024-01-25T05:12:56;1161.77;;;636.23;;
31091;SDS011;67728;53.122;12.776;2024-01-25T05:14:27;1119.17;;;635.70;;
31091;SDS011;67728;53.122;12.776;2024-01-25T05:15:58;1117.53;;;626.97;;
31091;SDS011;67728;53.122;12.776;2024-01-25T05:17:29;1110.97;;;629.97;;
31091;SDS011;67728;53.122;12.776;2024-01-25T05:19:00;1109.93;;;632.77;;
31091;SDS011;67728;53.122;12.776;2024-01-25T05:20:31;1104.90;;;622.97;;
31091;SDS011;67728;53.122;12.776;2024-01-25T05:22:04;1105.93;;;621.13;;
31091;SDS011;67728;53.122;12.776;2024-01-25T05:23:36;1106.50;;;627.50;;
31091;SDS011;67728;53.122;12.776;2024-01-25T05:25:09;1141.83;;;636.23;;
31091;SDS011;67728;53.122;12.776;2024-01-25T05:26:40;1126.13;;;637.40;;
31091;SDS011;67728;53.122;12.776;2024-01-25T05:28:11;1128.70;;;635.77;;
31091;SDS011;67728;53.122;12.776;2024-01-25T05:29:42;1115.97;;;632.47;;
31091;SDS011;67728;53.122;12.776;2024-01-25T05:31:14;1122.17;;;634.90;;
31091;SDS011;67728;53.122;12.776;2024-01-25T05:32:45;1120.93;;;632.47;;
31091;SDS011;67728;53.122;12.776;2024-01-25T05:34:18;1119.77;;;632.53;;
31091;SDS011;67728;53.122;12.776;2024-01-25T05:35:50;1102.37;;;615.90;;
31091;SDS011;67728;53.122;12.776;2024-01-25T05:37:20;1105.80;;;626.67;;
31091;SDS011;67728;53.122;12.776;2024-01-25T05:38:52;1104.63;;;631.60;;
31091;SDS011;67728;53.122;12.776;2024-01-25T05:40:24;1156.77;;;631.13;;
31091;SDS011;67728;53.122;12.776;2024-01-25T05:41:55;1116.27;;;630.97;;
31091;SDS011;67728;53.122;12.776;2024-01-25T05:43:26;1118.23;;;627.57;;
31091;SDS011;67728;53.122;12.776;2024-01-25T05:44:58;1123.23;;;629.87;;
31091;SDS011;67728;53.122;12.776;2024-01-25T05:46:28;1132.47;;;637.23;;
31091;SDS011;67728;53.122;12.776;2024-01-25T05:48:00;1131.47;;;634.07;;
31091;SDS011;67728;53.122;12.776;2024-01-25T05:49:31;1219.43;;;646.23;;
31091;SDS011;67728;53.122;12.776;2024-01-25T05:51:02;1128.77;;;634.37;;
31091;SDS011;67728;53.122;12.776;2024-01-25T05:52:33;1126.00;;;631.57;;
31091;SDS011;67728;53.122;12.776;2024-01-25T05:54:07;1114.70;;;633.77;;
31091;SDS011;67728;53.122;12.776;2024-01-25T05:55:39;1120.70;;;626.50;;
31091;SDS011;67728;53.122;12.776;2024-01-25T05:57:10;1115.57;;;633.17;;
31091;SDS011;67728;53.122;12.776;2024-01-25T05:58:41;1113.43;;;635.07;;
31091;SDS011;67728;53.122;12.776;2024-01-25T06:00:13;1112.13;;;632.30;;
31091;SDS011;67728;53.122;12.776;2024-01-25T06:01:46;1109.13;;;618.30;;
31091;SDS011;67728;53.122;12.776;2024-01-25T06:03:17;1116.47;;;619.20;;
31091;SDS011;67728;53.122;12.776;2024-01-25T06:04:48;1098.23;;;613.23;;
31091;SDS011;67728;53.122;12.776;2024-01-25T06:06:19;1095.97;;;617.87;;
31091;SDS011;67728;53.122;12.776;2024-01-25T06:07:50;1085.17;;;615.10;;
31091;SDS011;67728;53.122;12.776;2024-01-25T06:09:22;1084.03;;;614.60;;
31091;SDS011;67728;53.122;12.776;2024-01-25T06:10:55;1085.30;;;616.83;;
31091;SDS011;67728;53.122;12.776;2024-01-25T06:12:27;1092.47;;;611.30;;
31091;SDS011;67728;53.122;12.776;2024-01-25T06:13:58;1083.80;;;619.07;;
31091;SDS011;67728;53.122;12.776;2024-01-25T06:15:29;1100.47;;;622.90;;
31091;SDS011;67728;53.122;12.776;2024-01-25T06:17:00;1084.87;;;614.73;;
31091;SDS011;67728;53.122;12.776;2024-01-25T06:18:31;1100.13;;;618.37;;
31091;SDS011;67728;53.122;12.776;2024-01-25T06:20:02;1093.57;;;609.87;;
31091;SDS011;67728;53.122;12.776;2024-01-25T06:21:35;1096.87;;;615.23;;
31091;SDS011;67728;53.122;12.776;2024-01-25T06:23:07;1159.77;;;618.90;;
31091;SDS011;67728;53.122;12.776;2024-01-25T06:24:39;1196.10;;;619.57;;
31091;SDS011;67728;53.122;12.776;2024-01-25T06:26:11;1160.70;;;622.37;;
31091;SDS011;67728;53.122;12.776;2024-01-25T06:27:43;1098.67;;;609.93;;
31091;SDS011;67728;53.122;12.776;2024-01-25T06:29:13;1119.07;;;619.87;;
31091;SDS011;67728;53.122;12.776;2024-01-25T06:30:45;1107.43;;;621.23;;
31091;SDS011;67728;53.122;12.776;2024-01-25T06:32:15;1116.63;;;617.57;;
31091;SDS011;67728;53.122;12.776;2024-01-25T06:33:47;1096.33;;;614.13;;
31091;SDS011;67728;53.122;12.776;2024-01-25T06:35:20;1112.20;;;617.63;;
31091;SDS011;67728;53.122;12.776;2024-01-25T06:36:52;1103.60;;;615.07;;
31091;SDS011;67728;53.122;12.776;2024-01-25T06:38:22;1105.23;;;614.60;;
31091;SDS011;67728;53.122;12.776;2024-01-25T06:39:54;1091.17;;;610.43;;
31091;SDS011;67728;53.122;12.776;2024-01-25T06:41:26;1097.27;;;620.80;;
31091;SDS011;67728;53.122;12.776;2024-01-25T06:42:57;1098.37;;;618.63;;
31091;SDS011;67728;53.122;12.776;2024-01-25T06:44:28;1111.33;;;620.13;;
31091;SDS011;67728;53.122;12.776;2024-01-25T06:46:00;1104.47;;;622.83;;
31091;SDS011;67728;53.122;12.776;2024-01-25T06:47:30;1114.37;;;625.23;;
31091;SDS011;67728;53.122;12.776;2024-01-25T06:49:02;1115.07;;;634.87;;
31091;SDS011;67728;53.122;12.776;2024-01-25T06:50:33;1095.27;;;627.53;;
31091;SDS011;67728;53.122;12.776;2024-01-25T06:52:05;1094.63;;;623.53;;
31091;SDS011;67728;53.122;12.776;2024-01-25T06:53:35;1097.77;;;622.13;;
31091;SDS011;67728;53.122;12.776;2024-01-25T06:55:08;1142.67;;;627.73;;
31091;SDS011;67728;53.122;12.776;2024-01-25T06:56:40;1148.30;;;642.03;;
31091;SDS011;67728;53.122;12.776;2024-01-25T06:58:12;1136.97;;;625.63;;
31091;SDS011;67728;53.122;12.776;2024-01-25T06:59:43;1178.23;;;636.50;;
31091;SDS011;67728;53.122;12.776;2024-01-25T07:01:19;1176.13;;;653.67;;
31091;SDS011;67728;53.122;12.776;2024-01-25T07:02:51;1233.67;;;648.13;;
31091;SDS011;67728;53.122;12.776;2024-01-25T07:04:22;1290.83;;;654.87;;
31091;SDS011;67728;53.122;12.776;2024-01-25T07:05:53;1149.07;;;640.67;;
31091;SDS011;67728;53.122;12.776;2024-01-25T07:07:25;1146.47;;;634.53;;
31091;SDS011;67728;53.122;12.776;2024-01-25T07:08:55;1184.23;;;650.10;;
31091;SDS011;67728;53.122;12.776;2024-01-25T07:10:27;1150.97;;;637.60;;
31091;SDS011;67728;53.122;12.776;2024-01-25T07:11:59;1181.43;;;640.20;;
31091;SDS011;67728;53.122;12.776;2024-01-25T07:13:31;1207.77;;;637.10;;
31091;SDS011;67728;53.122;12.776;2024-01-25T07:15:01;1181.87;;;648.03;;
31091;SDS011;67728;53.122;12.776;2024-01-25T07:16:33;1184.57;;;618.63;;
31091;SDS011;67728;53.122;12.776;2024-01-25T07:18:04;1128.27;;;624.97;;
31091;SDS011;67728;53.122;12.776;2024-01-25T07:19:36;1142.17;;;625.33;;
31091;SDS011;67728;53.122;12.776;2024-01-25T07:21:07;1132.73;;;620.23;;
31091;SDS011;67728;53.122;12.776;2024-01-25T07:22:38;1139.23;;;640.20;;
31091;SDS011;67728;53.122;12.776;2024-01-25T07:24:09;1171.13;;;642.03;;
31091;SDS011;67728;53.122;12.776;2024-01-25T07:25:40;1139.07;;;640.33;;
31091;SDS011;67728;53.122;12.776;2024-01-25T07:27:12;1140.90;;;636.00;;
31091;SDS011;67728;53.122;12.776;2024-01-25T07:28:44;1145.07;;;640.43;;
31091;SDS011;67728;53.122;12.776;2024-01-25T07:30:16;1163.40;;;645.27;;
31091;SDS011;67728;53.122;12.776;2024-01-25T07:31:47;1158.67;;;638.43;;
31091;SDS011;67728;53.122;12.776;2024-01-25T07:33:18;1159.57;;;642.57;;
31091;SDS011;67728;53.122;12.776;2024-01-25T07:34:50;1142.63;;;630.53;;
31091;SDS011;67728;53.122;12.776;2024-01-25T07:36:21;1123.67;;;630.90;;
31091;SDS011;67728;53.122;12.776;2024-01-25T07:37:52;1165.90;;;632.43;;
31091;SDS011;67728;53.122;12.776;2024-01-25T07:39:23;1137.80;;;611.57;;
31091;SDS011;67728;53.122;12.776;2024-01-25T07:40:55;1139.47;;;641.23;;
31091;SDS011;67728;53.122;12.776;2024-01-25T07:42:27;1130.73;;;613.93;;
31091;SDS011;67728;53.122;12.776;2024-01-25T07:43:59;1150.43;;;648.63;;
31091;SDS011;67728;53.122;12.776;2024-01-25T07:45:30;1136.43;;;642.57;;
31091;SDS011;67728;53.122;12.776;2024-01-25T07:47:02;1174.13;;;652.47;;
31091;SDS011;67728;53.122;12.776;2024-01-25T07:48:34;1227.50;;;638.20;;
31091;SDS011;67728;53.122;12.776;2024-01-25T07:50:05;1171.80;;;624.10;;
31091;SDS011;67728;53.122;12.776;2024-01-25T07:51:38;1152.97;;;624.73;;
31091;SDS011;67728;53.122;12.776;2024-01-25T07:53:09;1131.87;;;603.67;;
31091;SDS011;67728;53.122;12.776;2024-01-25T07:54:42;1137.97;;;599.30;;
31091;SDS011;67728;53.122;12.776;2024-01-25T07:56:14;1113.83;;;593.50;;
31091;SDS011;67728;53.122;12.776;2024-01-25T07:57:47;1176.63;;;625.97;;
31091;SDS011;67728;53.122;12.776;2024-01-25T07:59:18;1125.43;;;618.63;;
31091;SDS011;67728;53.122;12.776;2024-01-25T08:00:49;1136.67;;;636.10;;
31091;SDS011;67728;53.122;12.776;2024-01-25T08:02:21;1167.17;;;655.90;;
31091;SDS011;67728;53.122;12.776;2024-01-25T08:03:52;1144.97;;;638.83;;
31091;SDS011;67728;53.122;12.776;2024-01-25T08:05:23;1130.47;;;634.73;;
31091;SDS011;67728;53.122;12.776;2024-01-25T08:06:55;1142.63;;;646.27;;
31091;SDS011;67728;53.122;12.776;2024-01-25T08:08:26;1281.13;;;667.23;;
31091;SDS011;67728;53.122;12.776;2024-01-25T08:09:58;1165.10;;;641.60;;
31091;SDS011;67728;53.122;12.776;2024-01-25T08:11:29;1164.63;;;631.23;;
31091;SDS011;67728;53.122;12.776;2024-01-25T08:13:01;1156.07;;;645.50;;
31091;SDS011;67728;53.122;12.776;2024-01-25T08:14:33;1139.50;;;638.70;;
31091;SDS011;67728;53.122;12.776;2024-01-25T08:16:08;1148.40;;;621.37;;
31091;SDS011;67728;53.122;12.776;2024-01-25T08:17:40;1151.43;;;598.73;;
31091;SDS011;67728;53.122;12.776;2024-01-25T08:19:12;1131.80;;;633.07;;
31091;SDS011;67728;53.122;12.776;2024-01-25T08:20:43;1143.23;;;626.50;;
31091;SDS011;67728;53.122;12.776;2024-01-25T08:22:14;1142.97;;;645.77;;
31091;SDS011;67728;53.122;12.776;2024-01-25T08:23:45;1136.73;;;650.40;;
31091;SDS011;67728;53.122;12.776;2024-01-25T08:25:17;1130.37;;;643.03;;